createdAt,value
2022-09-10T00:01:07.525Z,16.00
2022-09-10T00:03:34.385Z,12.65
2022-09-10T00:06:04.960Z,16.10
2022-09-10T00:08:34.324Z,16.80
2022-09-10T00:11:05.956Z,9.02
2022-09-10T00:13:34.497Z,14.90
2022-09-10T00:16:04.693Z,19.63
2022-09-10T00:18:32.058Z,11.18
2022-09-10T00:21:00.170Z,11.45
2022-09-10T00:23:29.408Z,13.82
2022-09-10T00:25:57.837Z,14.77
2022-09-10T00:28:27.306Z,14.57
2022-09-10T00:30:55.409Z,12.27
2022-09-10T00:33:23.722Z,19.35
2022-09-10T00:35:50.561Z,15.23
2022-09-10T00:38:18.685Z,14.13
2022-09-10T00:40:46.530Z,19.10
2022-09-10T00:43:21.940Z,22.73
2022-09-10T00:45:54.701Z,12.30
2022-09-10T00:48:31.101Z,14.95
2022-09-10T00:51:04.201Z,12.18
2022-09-10T00:53:31.745Z,17.13
2022-09-10T00:56:02.637Z,15.27
2022-09-10T00:58:29.996Z,16.35
2022-09-10T01:01:01.811Z,15.07
2022-09-10T01:03:31.403Z,15.00
2022-09-10T01:05:59.527Z,20.92
2022-09-10T01:08:27.468Z,19.90
2022-09-10T01:11:03.489Z,13.45
2022-09-10T01:13:46.902Z,14.05
2022-09-10T01:16:38.470Z,20.55
2022-09-10T01:19:46.640Z,12.63
2022-09-10T01:22:32.556Z,15.07
2022-09-10T01:25:06.967Z,11.05
2022-09-10T01:27:48.607Z,20.15
2022-09-10T01:30:27.564Z,19.45
2022-09-10T01:32:59.108Z,19.13
2022-09-10T01:35:43.176Z,15.77
2022-09-10T01:38:15.458Z,20.48
2022-09-10T01:40:44.204Z,12.98
2022-09-10T01:43:18.311Z,11.80
2022-09-10T01:46:05.359Z,16.17
2022-09-10T01:48:57.293Z,15.40
2022-09-10T01:51:34.854Z,20.45
2022-09-10T01:54:28.831Z,17.48
2022-09-10T01:57:13.784Z,19.02
2022-09-10T01:59:49.553Z,15.98
2022-09-10T02:02:26.026Z,16.80
2022-09-10T02:04:55.061Z,17.45
2022-09-10T02:07:24.841Z,18.73
2022-09-10T02:09:54.823Z,16.15
2022-09-10T02:12:24.762Z,19.05
2022-09-10T02:15:13.988Z,23.73
2022-09-10T02:18:01.342Z,23.52
2022-09-10T02:20:30.758Z,17.50
2022-09-10T02:22:59.851Z,21.77
2022-09-10T02:25:31.746Z,18.10
2022-09-10T02:27:59.509Z,16.05
2022-09-10T02:30:26.466Z,13.25
2022-09-10T02:32:53.395Z,19.52
2022-09-10T02:35:20.801Z,14.15
2022-09-10T02:37:50.794Z,18.92
2022-09-10T02:40:21.232Z,20.05
2022-09-10T02:42:48.602Z,17.98
2022-09-10T02:47:48.856Z,17.58
2022-09-10T02:50:16.836Z,18.25
2022-09-10T02:52:47.528Z,13.93
2022-09-10T02:55:15.029Z,20.63
2022-09-10T02:57:43.657Z,16.02
2022-09-10T03:00:11.241Z,13.75
2022-09-10T03:02:40.325Z,20.73
2022-09-10T03:05:07.752Z,19.92
2022-09-10T03:07:35.638Z,21.35
2022-09-10T03:10:02.566Z,18.90
2022-09-10T03:12:29.513Z,16.55
2022-09-10T03:14:57.758Z,18.15
2022-09-10T03:17:25.143Z,17.30
2022-09-10T03:19:52.251Z,22.30
2022-09-10T03:22:21.361Z,18.23
2022-09-10T03:24:48.677Z,20.23
2022-09-10T03:27:16.472Z,22.65
2022-09-10T03:29:44.407Z,19.35
2022-09-10T03:32:12.543Z,17.23
2022-09-10T03:34:40.116Z,21.67
2022-09-10T03:37:07.088Z,18.52
2022-09-10T03:39:35.736Z,19.05
2022-09-10T03:42:05.173Z,25.73
2022-09-10T03:44:33.691Z,18.15
2022-09-10T03:47:01.357Z,22.65
2022-09-10T03:49:29.519Z,22.30
2022-09-10T03:51:56.373Z,23.48
2022-09-10T03:54:24.459Z,25.92
2022-09-10T03:56:53.172Z,26.00
2022-09-10T03:59:21.859Z,26.17
2022-09-10T04:01:49.000Z,22.48
2022-09-10T04:04:16.160Z,23.92
2022-09-10T04:06:44.493Z,23.08
2022-09-10T04:09:12.205Z,32.25
2022-09-10T04:11:39.662Z,27.85
2022-09-10T04:14:07.704Z,23.52
2022-09-10T04:16:38.589Z,25.70
2022-09-10T04:19:07.572Z,28.50
2022-09-10T04:21:35.321Z,22.77
2022-09-10T04:24:03.143Z,31.80
2022-09-10T04:26:30.381Z,25.17
2022-09-10T04:28:58.533Z,27.33
2022-09-10T04:31:25.900Z,26.55
2022-09-10T04:34:02.072Z,29.48
2022-09-10T04:36:31.713Z,22.40
2022-09-10T04:38:59.037Z,25.80
2022-09-10T04:41:27.234Z,32.85
2022-09-10T04:43:54.280Z,30.75
2022-09-10T04:46:21.131Z,33.17
2022-09-10T04:48:52.033Z,32.60
2022-09-10T04:51:22.634Z,33.85
2022-09-10T04:53:53.066Z,31.33
2022-09-10T04:56:23.023Z,33.45
2022-09-10T04:58:50.366Z,34.38
2022-09-10T05:01:17.563Z,39.45
2022-09-10T05:03:46.600Z,34.38
2022-09-10T05:06:14.184Z,37.33
2022-09-10T05:08:41.073Z,39.67
2022-09-10T05:11:08.338Z,39.85
2022-09-10T05:13:35.423Z,36.83
2022-09-10T05:16:02.578Z,38.45
2022-09-10T05:18:31.924Z,35.95
2022-09-10T05:20:59.234Z,44.55
2022-09-10T05:23:29.619Z,45.80
2022-09-10T05:25:59.138Z,39.83
2022-09-10T05:28:27.304Z,40.92
2022-09-10T05:30:54.619Z,40.72
2022-09-10T05:33:23.748Z,47.03
2022-09-10T05:35:53.361Z,46.65
2022-09-10T05:38:21.862Z,44.97
2022-09-10T05:40:52.396Z,42.30
2022-09-10T05:43:20.997Z,47.15
2022-09-10T05:45:51.934Z,44.40
2022-09-10T05:48:20.324Z,46.13
2022-09-10T05:50:48.962Z,47.13
2022-09-10T05:53:17.403Z,46.90
2022-09-10T05:55:46.316Z,51.47
2022-09-10T05:58:13.762Z,48.25
2022-09-10T06:00:43.212Z,47.70
2022-09-10T06:03:10.515Z,46.25
2022-09-10T06:05:40.777Z,45.08
2022-09-10T06:08:08.986Z,46.45
2022-09-10T06:10:40.754Z,45.00
2022-09-10T06:13:09.134Z,50.95
2022-09-10T06:15:37.830Z,45.13
2022-09-10T06:18:04.760Z,44.80
2022-09-10T06:20:32.775Z,50.53
2022-09-10T06:23:00.459Z,44.40
2022-09-10T06:25:28.513Z,38.33
2022-09-10T06:27:56.455Z,41.50
2022-09-10T06:30:23.362Z,42.40
2022-09-10T06:32:50.859Z,42.53
2022-09-10T06:35:18.071Z,45.60
2022-09-10T06:37:45.205Z,41.45
2022-09-10T06:40:15.556Z,43.53
2022-09-10T06:42:43.514Z,44.22
2022-09-10T06:45:13.444Z,46.35
2022-09-10T06:50:57.591Z,49.80
2022-09-10T06:53:33.708Z,38.92
2022-09-10T06:56:03.157Z,43.97
2022-09-10T06:58:37.894Z,43.63
2022-09-10T07:03:48.172Z,44.33
2022-09-10T07:06:17.745Z,40.13
2022-09-10T07:08:49.118Z,41.00
2022-09-10T07:11:17.101Z,43.85
2022-09-10T07:13:49.353Z,36.05
2022-09-10T07:16:22.294Z,37.13
2022-09-10T07:18:55.059Z,36.88
2022-09-10T07:21:28.789Z,38.65
2022-09-10T07:24:04.863Z,32.47
2022-09-10T07:26:33.833Z,32.50
2022-09-10T07:29:02.633Z,33.75
2022-09-10T07:31:31.646Z,33.95
2022-09-10T07:34:03.442Z,35.03
2022-09-10T07:36:49.246Z,34.45
2022-09-10T07:39:17.374Z,34.47
2022-09-10T07:41:44.915Z,31.33
2022-09-10T07:44:14.534Z,35.60
2022-09-10T07:46:43.802Z,32.17
2022-09-10T07:49:13.533Z,32.47
2022-09-10T07:51:45.500Z,34.03
2022-09-10T07:54:15.901Z,30.65
2022-09-10T07:56:48.444Z,30.33
2022-09-10T07:59:16.318Z,31.98
2022-09-10T08:01:50.632Z,37.47
2022-09-10T08:04:20.566Z,32.40
2022-09-10T08:06:48.445Z,35.50
2022-09-10T08:09:19.354Z,29.75
2022-09-10T08:11:51.650Z,30.40
2022-09-10T08:14:22.422Z,30.27
2022-09-10T08:16:52.606Z,39.75
2022-09-10T08:19:22.303Z,36.25
2022-09-10T08:21:51.481Z,34.30
2022-09-10T08:24:26.325Z,36.45
2022-09-10T08:26:55.276Z,33.30
2022-09-10T08:29:23.210Z,29.70
2022-09-10T08:31:51.626Z,30.95
2022-09-10T08:34:23.654Z,30.70
2022-09-10T08:36:59.445Z,31.38
2022-09-10T08:39:29.251Z,29.27
2022-09-10T08:41:58.843Z,35.08
2022-09-10T08:44:27.833Z,28.63
2022-09-10T08:47:21.922Z,26.85
2022-09-10T08:50:09.124Z,29.55
2022-09-10T08:52:59.767Z,28.63
2022-09-10T08:55:38.155Z,29.52
2022-09-10T08:58:19.097Z,26.92
2022-09-10T09:00:54.386Z,25.52
2022-09-10T09:03:32.612Z,25.90
2022-09-10T09:06:09.078Z,24.95
2022-09-10T09:08:48.497Z,51.65
2022-09-10T09:11:29.305Z,25.92
2022-09-10T09:14:03.417Z,27.67
2022-09-10T09:16:33.933Z,26.33
2022-09-10T09:19:06.389Z,26.58
2022-09-10T09:21:54.239Z,28.83
2022-09-10T09:24:39.691Z,25.85
2022-09-10T09:27:14.706Z,26.97
2022-09-10T09:29:55.011Z,26.40
2022-09-10T09:32:24.677Z,36.95
2022-09-10T09:34:56.821Z,20.88
2022-09-10T09:37:29.739Z,22.25
2022-09-10T09:40:46.918Z,27.50
2022-09-10T09:43:45.762Z,18.95
2022-09-10T09:46:42.625Z,23.02
2022-09-10T09:49:40.729Z,20.70
2022-09-10T09:52:40.851Z,22.67
2022-09-10T09:55:26.548Z,18.15
2022-09-10T09:58:24.067Z,15.38
2022-09-10T10:01:54.426Z,21.90
2022-09-10T10:04:26.861Z,25.63
2022-09-10T10:10:57.910Z,24.48
2022-09-10T10:13:25.177Z,17.00
2022-09-10T10:15:53.559Z,19.65
2022-09-10T10:18:23.964Z,15.13
2022-09-10T10:21:16.696Z,14.85
2022-09-10T10:23:44.473Z,14.68
2022-09-10T10:26:33.165Z,17.48
2022-09-10T10:29:17.912Z,10.98
2022-09-10T10:31:47.103Z,12.52
2022-09-10T10:34:40.162Z,14.48
2022-09-10T10:37:38.635Z,14.50
2022-09-10T10:40:12.175Z,10.85
2022-09-10T10:43:06.706Z,13.05
2022-09-10T10:45:49.364Z,15.57
2022-09-10T10:48:43.031Z,11.00
2022-09-10T10:51:34.184Z,12.95
2022-09-10T10:54:23.744Z,8.23
2022-09-10T10:57:02.566Z,9.73
2022-09-10T10:59:54.430Z,10.98
2022-09-10T11:02:39.508Z,16.35
2022-09-10T11:05:25.695Z,11.13
2022-09-10T11:07:56.434Z,11.70
2022-09-10T11:10:43.592Z,13.80
2022-09-10T11:13:31.938Z,10.70
2022-09-10T11:16:09.595Z,12.52
2022-09-10T11:18:49.440Z,16.45
2022-09-10T11:21:34.828Z,12.15
2022-09-10T11:24:04.133Z,10.88
2022-09-10T11:26:37.910Z,10.82
2022-09-10T11:29:25.329Z,13.68
2022-09-10T11:32:03.342Z,11.13
2022-09-10T11:34:41.491Z,11.70
2022-09-10T11:37:26.410Z,8.52
2022-09-10T11:39:59.447Z,15.60
2022-09-10T11:42:34.254Z,10.30
2022-09-10T11:45:32.117Z,10.80
2022-09-10T11:48:08.712Z,13.27
2022-09-10T11:50:56.508Z,12.80
2022-09-10T11:53:25.447Z,10.55
2022-09-10T11:56:33.352Z,12.32
2022-09-10T11:59:14.923Z,9.18
2022-09-10T12:01:56.424Z,10.98
2022-09-10T12:04:45.667Z,8.13
2022-09-10T12:07:44.422Z,15.18
2022-09-10T12:10:45.405Z,12.98
2022-09-10T12:13:15.777Z,15.02
2022-09-10T12:16:02.499Z,9.57
2022-09-10T12:18:43.070Z,15.02
2022-09-10T12:21:25.129Z,16.48
2022-09-10T12:23:52.878Z,14.88
2022-09-10T12:26:21.460Z,10.30
2022-09-10T12:29:01.462Z,10.40
2022-09-10T12:31:48.288Z,11.10
2022-09-10T12:34:19.587Z,11.00
2022-09-10T12:36:49.681Z,9.45
2022-09-10T12:39:29.763Z,5.53
2022-09-10T12:42:23.152Z,7.20
2022-09-10T12:44:52.483Z,7.28
2022-09-10T12:47:33.701Z,5.40
2022-09-10T12:50:06.636Z,6.07
2022-09-10T12:52:51.659Z,6.75
2022-09-10T12:55:39.563Z,4.72
2022-09-10T12:58:42.679Z,7.90
2022-09-10T13:01:29.140Z,5.47
2022-09-10T13:04:00.409Z,8.05
2022-09-10T13:06:47.658Z,6.80
2022-09-10T13:09:23.714Z,10.65
2022-09-10T13:11:54.414Z,6.53
2022-09-10T13:14:30.666Z,9.60
2022-09-10T13:16:57.595Z,8.63
2022-09-10T13:19:24.380Z,5.70
2022-09-10T13:21:53.855Z,7.38
2022-09-10T13:24:58.863Z,5.43
2022-09-10T13:27:38.105Z,8.77
2022-09-10T13:30:22.401Z,6.35
2022-09-10T13:32:57.098Z,8.70
2022-09-10T13:35:51.880Z,6.10
2022-09-10T13:38:49.590Z,6.72
2022-09-10T13:41:45.801Z,10.23
2022-09-10T13:44:51.934Z,8.70
2022-09-10T13:47:28.068Z,10.65
2022-09-10T13:50:01.241Z,6.18
2022-09-10T13:52:36.964Z,11.25
2022-09-10T13:55:08.059Z,9.88
2022-09-10T13:57:42.343Z,11.73
2022-09-10T14:00:13.408Z,11.20
2022-09-10T14:02:44.644Z,10.32
2022-09-10T14:05:33.903Z,10.02
2022-09-10T14:08:21.581Z,10.55
2022-09-10T14:11:14.725Z,8.82
2022-09-10T14:14:06.547Z,12.05
2022-09-10T14:17:23.781Z,12.75
2022-09-10T14:19:59.638Z,13.32
2022-09-10T14:22:28.793Z,10.73
2022-09-10T14:24:59.767Z,13.55
2022-09-10T14:27:31.135Z,15.02
2022-09-10T14:30:23.058Z,13.43
2022-09-10T14:32:52.370Z,11.02
2022-09-10T14:35:39.296Z,18.58
2022-09-10T14:38:25.597Z,12.95
2022-09-10T14:41:04.319Z,11.93
2022-09-10T14:43:38.555Z,13.63
2022-09-10T14:46:10.329Z,14.38
2022-09-10T14:48:44.341Z,15.47
2022-09-10T14:51:18.556Z,12.30
2022-09-10T14:53:50.142Z,15.32
2022-09-10T14:56:32.700Z,9.50
2022-09-10T14:59:14.992Z,11.30
2022-09-10T15:01:45.606Z,17.73
2022-09-10T15:04:15.835Z,10.23
2022-09-10T15:06:44.009Z,10.75
2022-09-10T15:09:13.428Z,10.43
2022-09-10T15:11:54.482Z,10.20
2022-09-10T15:14:22.310Z,8.02
2022-09-10T15:16:52.845Z,11.23
2022-09-10T15:19:20.959Z,13.07
2022-09-10T15:21:47.934Z,8.93
2022-09-10T15:24:58.737Z,10.55
2022-09-10T15:27:23.347Z,11.50
2022-09-10T15:29:50.342Z,9.35
2022-09-10T15:32:18.229Z,11.07
2022-09-10T15:34:45.078Z,9.15
2022-09-10T15:37:11.931Z,9.15
2022-09-10T15:39:38.822Z,10.30
2022-09-10T15:42:06.163Z,10.98
2022-09-10T15:44:34.313Z,11.93
2022-09-10T15:47:02.211Z,10.77
2022-09-10T15:49:30.323Z,14.15
2022-09-10T15:51:57.394Z,12.98
2022-09-10T15:54:28.868Z,10.95
2022-09-10T15:56:57.237Z,14.73
2022-09-10T15:59:24.475Z,14.90
2022-09-10T16:01:52.987Z,12.18
2022-09-10T16:04:20.917Z,17.50
2022-09-10T16:06:47.912Z,14.05
2022-09-10T16:09:15.302Z,10.35
2022-09-10T16:11:43.319Z,14.82
2022-09-10T16:14:14.502Z,15.70
2022-09-10T16:16:41.598Z,14.65
2022-09-10T16:19:10.678Z,14.38
2022-09-10T16:21:38.144Z,15.68
2022-09-10T16:24:06.333Z,10.32
2022-09-10T16:26:38.896Z,15.30
2022-09-10T16:29:11.870Z,10.38
2022-09-10T16:31:41.623Z,19.33
2022-09-10T16:34:12.441Z,12.75
2022-09-10T16:36:39.910Z,17.08
2022-09-10T16:39:12.323Z,19.48
2022-09-10T16:44:14.755Z,16.38
2022-09-10T16:46:42.545Z,15.48
2022-09-10T16:49:14.368Z,18.83
2022-09-10T16:51:42.888Z,13.63
2022-09-10T16:54:11.184Z,18.42
2022-09-10T16:56:40.959Z,13.93
2022-09-10T16:59:18.386Z,15.55
2022-09-10T17:01:47.971Z,16.67
2022-09-10T17:04:19.736Z,15.85
2022-09-10T17:06:51.120Z,10.05
2022-09-10T17:09:18.142Z,15.93
2022-09-10T17:11:46.061Z,15.20
2022-09-10T17:14:12.973Z,13.73
2022-09-10T17:16:42.675Z,13.65
2022-09-10T17:19:17.669Z,15.38
2022-09-10T17:21:51.252Z,13.55
2022-09-10T17:24:21.030Z,16.92
2022-09-10T17:26:48.056Z,13.20
2022-09-10T17:29:17.006Z,12.77
2022-09-10T17:31:46.701Z,13.40
2022-09-10T17:34:15.314Z,13.82
2022-09-10T17:36:45.291Z,9.85
2022-09-10T17:39:12.909Z,14.30
2022-09-10T17:41:40.330Z,14.05
2022-09-10T17:44:09.301Z,20.77
2022-09-10T17:46:36.339Z,18.48
2022-09-10T17:49:04.239Z,17.35
2022-09-10T17:51:34.441Z,16.70
2022-09-10T17:54:03.282Z,17.85
2022-09-10T17:56:30.897Z,16.52
2022-09-10T17:59:01.474Z,17.48
2022-09-10T18:01:33.774Z,19.67
2022-09-10T18:04:03.204Z,20.23
2022-09-10T18:06:32.243Z,19.10
2022-09-10T18:09:03.571Z,18.58
2022-09-10T18:11:34.947Z,17.52
2022-09-10T18:14:04.862Z,16.58
2022-09-10T18:16:33.719Z,16.67
2022-09-10T18:19:14.260Z,14.73
2022-09-10T18:21:44.624Z,14.07
2022-09-10T18:24:19.172Z,14.90
2022-09-10T18:26:49.328Z,14.48
2022-09-10T18:29:19.629Z,13.40
2022-09-10T18:31:49.174Z,13.68
2022-09-10T18:34:23.339Z,16.27
2022-09-10T18:36:55.375Z,16.52
2022-09-10T18:39:25.222Z,21.67
2022-09-10T18:41:52.881Z,22.25
2022-09-10T18:44:22.883Z,21.85
2022-09-10T18:46:50.965Z,19.70
2022-09-10T18:49:21.556Z,17.27
2022-09-10T18:51:49.476Z,23.05
2022-09-10T18:54:23.719Z,22.80
2022-09-10T18:56:53.503Z,24.80
2022-09-10T18:59:23.298Z,17.35
2022-09-10T19:01:54.145Z,18.27
2022-09-10T19:04:26.136Z,21.80
2022-09-10T19:06:54.849Z,24.55
2022-09-10T19:09:24.217Z,15.65
2022-09-10T19:11:54.754Z,20.80
2022-09-10T19:14:29.899Z,19.88
2022-09-10T19:16:58.562Z,18.70
2022-09-10T19:19:29.005Z,19.88
2022-09-10T19:21:59.573Z,18.70
2022-09-10T19:24:44.025Z,22.80
2022-09-10T19:27:14.964Z,21.23
2022-09-10T19:29:42.233Z,23.00
2022-09-10T19:32:11.157Z,22.40
2022-09-10T19:34:39.139Z,23.13
2022-09-10T19:37:07.297Z,19.00
2022-09-10T19:39:36.369Z,19.27
2022-09-10T19:42:03.520Z,21.40
2022-09-10T19:44:33.700Z,21.48
2022-09-10T19:47:01.079Z,22.00
2022-09-10T19:49:29.655Z,21.98
2022-09-10T19:51:56.508Z,21.33
2022-09-10T19:54:25.879Z,21.27
2022-09-10T19:56:56.491Z,19.83
2022-09-10T19:59:25.771Z,23.10
2022-09-10T20:01:53.353Z,17.33
2022-09-10T20:04:20.297Z,19.13
2022-09-10T20:06:50.509Z,19.52
2022-09-10T20:09:17.494Z,25.90
2022-09-10T20:11:45.028Z,17.80
2022-09-10T20:14:14.570Z,20.73
2022-09-10T20:16:44.431Z,22.35
2022-09-10T20:19:16.497Z,20.92
2022-09-10T20:21:43.796Z,20.90
2022-09-10T20:24:11.685Z,20.77
2022-09-10T20:26:41.058Z,20.30
2022-09-10T20:29:16.295Z,21.58
2022-09-10T20:31:44.103Z,18.92
2022-09-10T20:34:13.689Z,18.70
2022-09-10T20:36:42.414Z,19.33
2022-09-10T20:39:11.667Z,21.15
2022-09-10T20:41:39.919Z,20.42
2022-09-10T20:44:06.769Z,20.83
2022-09-10T20:46:34.449Z,22.13
2022-09-10T20:49:04.523Z,25.27
2022-09-10T20:51:36.020Z,22.25
2022-09-10T20:54:07.651Z,21.10
2022-09-10T20:56:34.690Z,20.97
2022-09-10T20:59:01.994Z,24.38
2022-09-10T21:01:33.251Z,24.85
2022-09-10T21:04:01.483Z,23.75
2022-09-10T21:06:31.578Z,24.65
2022-09-10T21:09:00.951Z,23.73
2022-09-10T21:11:30.997Z,23.42
2022-09-10T21:14:02.195Z,21.30
2022-09-10T21:16:31.509Z,24.02
2022-09-10T21:19:28.032Z,26.42
2022-09-10T21:21:55.855Z,18.27
2022-09-10T21:24:23.794Z,26.25
2022-09-10T21:26:53.227Z,27.00
2022-09-10T21:29:21.055Z,28.52
2022-09-10T21:31:50.787Z,21.65
2022-09-10T21:34:19.313Z,28.73
2022-09-10T21:36:46.323Z,20.27
2022-09-10T21:39:15.964Z,25.95
2022-09-10T21:41:51.901Z,23.63
2022-09-10T21:44:22.059Z,22.75
2022-09-10T21:46:50.993Z,27.13
2022-09-10T21:49:18.554Z,25.60
2022-09-10T21:51:46.805Z,25.48
2022-09-10T21:54:17.041Z,23.17
2022-09-10T21:56:44.074Z,27.17
2022-09-10T21:59:14.681Z,28.38
2022-09-10T22:01:44.069Z,26.95
2022-09-10T22:04:13.386Z,22.80
2022-09-10T22:06:41.641Z,24.77
2022-09-10T22:09:14.609Z,26.10
2022-09-10T22:11:45.944Z,26.67
2022-09-10T22:14:24.772Z,28.70
2022-09-10T22:16:52.710Z,29.17
2022-09-10T22:19:22.578Z,27.50
2022-09-10T22:21:53.223Z,33.50
2022-09-10T22:24:20.137Z,31.05
2022-09-10T22:26:47.691Z,34.38
2022-09-10T22:29:19.518Z,34.47
2022-09-10T22:31:47.689Z,30.77
2022-09-10T22:34:15.821Z,32.70
2022-09-10T22:36:45.424Z,41.28
2022-09-10T22:39:14.672Z,31.90
2022-09-10T22:41:41.884Z,28.63
2022-09-10T22:44:10.513Z,28.27
2022-09-10T22:46:38.137Z,32.80
2022-09-10T22:49:07.469Z,30.08
2022-09-10T22:51:37.897Z,27.88
2022-09-10T22:54:05.987Z,29.33
2022-09-10T22:56:35.891Z,26.85
2022-09-10T22:59:03.551Z,33.53
2022-09-10T23:01:35.451Z,33.70
2022-09-10T23:04:05.009Z,31.70
2022-09-10T23:06:33.583Z,36.80
2022-09-10T23:09:13.783Z,30.45
2022-09-10T23:11:41.773Z,34.67
2022-09-10T23:14:13.969Z,33.00
2022-09-10T23:16:43.239Z,33.97
2022-09-10T23:19:14.803Z,34.67
2022-09-10T23:21:44.245Z,33.33
2022-09-10T23:24:14.485Z,42.80
2022-09-10T23:26:42.488Z,33.00
2022-09-10T23:29:12.393Z,34.58
2022-09-10T23:31:41.093Z,37.38
2022-09-10T23:34:19.586Z,32.25
2022-09-10T23:36:48.238Z,37.67
2022-09-10T23:39:20.375Z,33.75
2022-09-10T23:41:48.561Z,34.05
2022-09-10T23:44:15.682Z,30.20
2022-09-10T23:46:44.791Z,36.15
2022-09-10T23:49:12.735Z,34.47
2022-09-10T23:51:40.871Z,36.40
2022-09-10T23:54:09.967Z,35.00
2022-09-10T23:56:37.840Z,36.63
2022-09-10T23:59:04.699Z,36.00
